sensor_id;sensor_type;location;lat;lon;timestamp;pressure;altitude;pressure_sealevel;temperature;humidity
8059;BME280;75058;42.668;23.396;2024-03-22T00:02:19;95231.88;;;4.42;51.65
8059;BME280;75058;42.668;23.396;2024-03-22T00:04:45;95236.09;;;5.21;49.23
8059;BME280;75058;42.668;23.396;2024-03-22T00:07:12;95237.31;;;4.83;51.08
8059;BME280;75058;42.668;23.396;2024-03-22T00:09:38;95231.50;;;4.45;50.47
8059;BME280;75058;42.668;23.396;2024-03-22T00:12:06;95243.38;;;4.54;50.00
8059;BME280;75058;42.668;23.396;2024-03-22T00:14:32;95236.25;;;4.41;50.29
8059;BME280;75058;42.668;23.396;2024-03-22T00:16:59;95242.88;;;4.44;50.93
8059;BME280;75058;42.668;23.396;2024-03-22T00:19:30;95230.72;;;4.44;48.87
8059;BME280;75058;42.668;23.396;2024-03-22T00:21:57;95231.31;;;5.03;49.34
8059;BME280;75058;42.668;23.396;2024-03-22T00:24:23;95233.72;;;4.84;49.98
8059;BME280;75058;42.668;23.396;2024-03-22T00:26:50;95240.81;;;4.75;50.88
8059;BME280;75058;42.668;23.396;2024-03-22T00:29:16;95243.31;;;4.68;49.96
8059;BME280;75058;42.668;23.396;2024-03-22T00:31:44;95241.31;;;4.49;50.23
8059;BME280;75058;42.668;23.396;2024-03-22T00:34:10;95225.28;;;5.17;49.45
8059;BME280;75058;42.668;23.396;2024-03-22T00:36:39;95229.41;;;5.33;48.94
8059;BME280;75058;42.668;23.396;2024-03-22T00:39:05;95238.56;;;5.57;48.68
8059;BME280;75058;42.668;23.396;2024-03-22T00:41:32;95238.88;;;5.68;47.59
8059;BME280;75058;42.668;23.396;2024-03-22T00:43:58;95234.69;;;6.01;46.99
8059;BME280;75058;42.668;23.396;2024-03-22T00:46:25;95225.13;;;6.02;46.55
8059;BME280;75058;42.668;23.396;2024-03-22T00:48:51;95222.13;;;5.71;48.07
8059;BME280;75058;42.668;23.396;2024-03-22T00:51:18;95221.09;;;5.99;47.63
8059;BME280;75058;42.668;23.396;2024-03-22T00:53:46;95221.03;;;5.86;46.84
8059;BME280;75058;42.668;23.396;2024-03-22T00:56:13;95226.13;;;6.07;46.24
8059;BME280;75058;42.668;23.396;2024-03-22T00:58:39;95221.09;;;5.99;46.02
8059;BME280;75058;42.668;23.396;2024-03-22T01:01:06;95214.28;;;5.92;45.95
8059;BME280;75058;42.668;23.396;2024-03-22T01:03:33;95215.69;;;5.94;45.24
8059;BME280;75058;42.668;23.396;2024-03-22T01:06:00;95214.78;;;6.08;45.27
8059;BME280;75058;42.668;23.396;2024-03-22T01:08:26;95219.88;;;5.95;44.84
8059;BME280;75058;42.668;23.396;2024-03-22T01:10:54;95226.34;;;6.06;45.56
8059;BME280;75058;42.668;23.396;2024-03-22T01:13:20;95220.69;;;5.96;45.08
8059;BME280;75058;42.668;23.396;2024-03-22T01:15:48;95224.69;;;6.33;45.57
8059;BME280;75058;42.668;23.396;2024-03-22T01:18:14;95230.88;;;6.32;44.06
8059;BME280;75058;42.668;23.396;2024-03-22T01:20:41;95193.38;;;6.06;44.02
8059;BME280;75058;42.668;23.396;2024-03-22T01:23:08;95228.84;;;6.27;45.33
8059;BME280;75058;42.668;23.396;2024-03-22T01:25:35;95229.50;;;5.74;46.45
8059;BME280;75058;42.668;23.396;2024-03-22T01:28:04;95224.47;;;5.66;47.79
8059;BME280;75058;42.668;23.396;2024-03-22T01:30:31;95234.25;;;5.91;46.81
8059;BME280;75058;42.668;23.396;2024-03-22T01:32:59;95238.47;;;5.22;48.50
8059;BME280;75058;42.668;23.396;2024-03-22T01:35:26;95238.44;;;4.95;49.13
8059;BME280;75058;42.668;23.396;2024-03-22T01:37:52;95233.03;;;4.75;49.97
8059;BME280;75058;42.668;23.396;2024-03-22T01:40:19;95237.81;;;4.07;52.02
8059;BME280;75058;42.668;23.396;2024-03-22T01:42:45;95238.44;;;3.79;52.81
8059;BME280;75058;42.668;23.396;2024-03-22T01:45:14;95236.19;;;3.62;53.39
8059;BME280;75058;42.668;23.396;2024-03-22T01:47:41;95226.47;;;4.08;54.12
8059;BME280;75058;42.668;23.396;2024-03-22T01:50:09;95236.72;;;4.30;52.64
8059;BME280;75058;42.668;23.396;2024-03-22T01:52:36;95234.75;;;4.18;52.81
8059;BME280;75058;42.668;23.396;2024-03-22T01:55:03;95237.88;;;4.13;52.26
8059;BME280;75058;42.668;23.396;2024-03-22T01:57:32;95241.81;;;4.24;52.36
8059;BME280;75058;42.668;23.396;2024-03-22T02:00:00;95238.69;;;4.14;52.02
8059;BME280;75058;42.668;23.396;2024-03-22T02:02:27;95240.22;;;4.23;52.12
8059;BME280;75058;42.668;23.396;2024-03-22T02:04:56;95236.09;;;4.28;52.00
8059;BME280;75058;42.668;23.396;2024-03-22T02:07:22;95237.53;;;4.31;51.53
8059;BME280;75058;42.668;23.396;2024-03-22T02:09:49;95231.00;;;4.20;51.72
8059;BME280;75058;42.668;23.396;2024-03-22T02:12:15;95224.69;;;4.23;51.38
8059;BME280;75058;42.668;23.396;2024-03-22T02:14:42;95236.44;;;4.40;52.10
8059;BME280;75058;42.668;23.396;2024-03-22T02:17:08;95237.88;;;4.28;52.40
8059;BME280;75058;42.668;23.396;2024-03-22T02:19:37;95235.78;;;4.52;52.08
8059;BME280;75058;42.668;23.396;2024-03-22T02:22:03;95242.56;;;4.53;50.37
8059;BME280;75058;42.668;23.396;2024-03-22T02:24:31;95246.00;;;4.75;50.42
8059;BME280;75058;42.668;23.396;2024-03-22T02:26:57;95239.56;;;4.71;50.93
8059;BME280;75058;42.668;23.396;2024-03-22T02:29:24;95239.53;;;4.86;51.29
8059;BME280;75058;42.668;23.396;2024-03-22T02:31:50;95238.13;;;4.83;51.24
8059;BME280;75058;42.668;23.396;2024-03-22T02:34:17;95247.88;;;5.23;51.83
8059;BME280;75058;42.668;23.396;2024-03-22T02:36:43;95241.44;;;5.40;50.58
8059;BME280;75058;42.668;23.396;2024-03-22T02:39:10;95249.00;;;4.43;51.99
8059;BME280;75058;42.668;23.396;2024-03-22T02:41:38;95261.09;;;4.36;51.57
8059;BME280;75058;42.668;23.396;2024-03-22T02:44:05;95253.56;;;4.55;52.70
8059;BME280;75058;42.668;23.396;2024-03-22T02:46:31;95263.13;;;4.26;53.40
8059;BME280;75058;42.668;23.396;2024-03-22T02:48:58;95269.41;;;4.17;53.77
8059;BME280;75058;42.668;23.396;2024-03-22T02:51:24;95267.34;;;4.27;52.88
8059;BME280;75058;42.668;23.396;2024-03-22T02:53:51;95261.38;;;3.31;54.70
8059;BME280;75058;42.668;23.396;2024-03-22T02:56:17;95273.28;;;3.32;55.20
8059;BME280;75058;42.668;23.396;2024-03-22T02:58:45;95276.13;;;3.22;55.93
8059;BME280;75058;42.668;23.396;2024-03-22T03:01:11;95283.44;;;3.56;55.91
8059;BME280;75058;42.668;23.396;2024-03-22T03:03:38;95284.28;;;3.11;56.51
8059;BME280;75058;42.668;23.396;2024-03-22T03:06:05;95290.03;;;3.21;56.28
8059;BME280;75058;42.668;23.396;2024-03-22T03:08:32;95289.59;;;2.95;56.84
8059;BME280;75058;42.668;23.396;2024-03-22T03:10:58;95292.06;;;2.80;57.68
8059;BME280;75058;42.668;23.396;2024-03-22T03:13:25;95296.41;;;2.88;58.19
8059;BME280;75058;42.668;23.396;2024-03-22T03:15:53;95301.13;;;2.76;57.40
8059;BME280;75058;42.668;23.396;2024-03-22T03:18:20;95301.25;;;2.83;56.99
8059;BME280;75058;42.668;23.396;2024-03-22T03:20:46;95299.19;;;2.78;57.12
8059;BME280;75058;42.668;23.396;2024-03-22T03:23:12;95303.78;;;2.68;55.79
8059;BME280;75058;42.668;23.396;2024-03-22T03:25:39;95307.56;;;2.80;55.82
8059;BME280;75058;42.668;23.396;2024-03-22T03:28:06;95268.00;;;2.57;56.87
8059;BME280;75058;42.668;23.396;2024-03-22T03:30:33;95296.97;;;2.98;56.77
8059;BME280;75058;42.668;23.396;2024-03-22T03:33:06;95294.63;;;2.88;55.73
8059;BME280;75058;42.668;23.396;2024-03-22T03:35:32;95310.44;;;2.55;56.90
8059;BME280;75058;42.668;23.396;2024-03-22T03:37:59;95314.50;;;2.49;56.85
8059;BME280;75058;42.668;23.396;2024-03-22T03:40:25;95316.91;;;2.51;55.71
8059;BME280;75058;42.668;23.396;2024-03-22T03:42:53;95277.88;;;2.84;56.07
8059;BME280;75058;42.668;23.396;2024-03-22T03:45:19;95317.06;;;3.10;55.76
8059;BME280;75058;42.668;23.396;2024-03-22T03:47:46;95323.81;;;2.66;57.12
8059;BME280;75058;42.668;23.396;2024-03-22T03:50:14;95323.81;;;2.66;56.50
8059;BME280;75058;42.668;23.396;2024-03-22T03:52:41;95317.19;;;2.25;57.32
8059;BME280;75058;42.668;23.396;2024-03-22T03:55:07;95319.22;;;2.38;57.42
8059;BME280;75058;42.668;23.396;2024-03-22T03:57:34;95314.22;;;2.75;56.74
8059;BME280;75058;42.668;23.396;2024-03-22T04:00:00;95318.75;;;2.73;57.29
8059;BME280;75058;42.668;23.396;2024-03-22T04:02:28;95322.38;;;2.94;56.70
8059;BME280;75058;42.668;23.396;2024-03-22T04:04:54;95301.91;;;2.85;56.35
8059;BME280;75058;42.668;23.396;2024-03-22T04:07:22;95321.75;;;3.38;56.07
8059;BME280;75058;42.668;23.396;2024-03-22T04:09:48;95325.28;;;3.59;55.42
8059;BME280;75058;42.668;23.396;2024-03-22T04:12:15;95325.38;;;3.66;56.13
8059;BME280;75058;42.668;23.396;2024-03-22T04:14:41;95332.28;;;3.73;54.52
8059;BME280;75058;42.668;23.396;2024-03-22T04:17:08;95329.09;;;3.86;54.05
8059;BME280;75058;42.668;23.396;2024-03-22T04:19:35;95329.50;;;4.12;54.29
8059;BME280;75058;42.668;23.396;2024-03-22T04:22:02;95333.78;;;4.20;52.88
8059;BME280;75058;42.668;23.396;2024-03-22T04:24:29;95335.22;;;4.22;52.76
8059;BME280;75058;42.668;23.396;2024-03-22T04:26:57;95334.59;;;4.35;52.68
8059;BME280;75058;42.668;23.396;2024-03-22T04:29:23;95330.84;;;4.23;52.57
8059;BME280;75058;42.668;23.396;2024-03-22T04:31:50;95332.09;;;4.12;53.10
8059;BME280;75058;42.668;23.396;2024-03-22T04:34:16;95333.44;;;4.23;52.43
8059;BME280;75058;42.668;23.396;2024-03-22T04:36:44;95343.94;;;4.07;52.44
8059;BME280;75058;42.668;23.396;2024-03-22T04:39:10;95326.69;;;3.84;51.82
8059;BME280;75058;42.668;23.396;2024-03-22T04:41:41;95352.03;;;3.52;53.75
8059;BME280;75058;42.668;23.396;2024-03-22T04:44:08;95349.66;;;3.65;53.65
8059;BME280;75058;42.668;23.396;2024-03-22T04:46:35;95346.78;;;3.82;54.46
8059;BME280;75058;42.668;23.396;2024-03-22T04:49:01;95360.22;;;3.55;55.55
8059;BME280;75058;42.668;23.396;2024-03-22T04:51:28;95352.88;;;3.67;54.47
8059;BME280;75058;42.668;23.396;2024-03-22T04:53:54;95363.25;;;3.44;55.14
8059;BME280;75058;42.668;23.396;2024-03-22T04:56:21;95319.09;;;3.46;56.18
8059;BME280;75058;42.668;23.396;2024-03-22T05:02:39;95356.09;;;4.94;52.73
8059;BME280;75058;42.668;23.396;2024-03-22T05:05:06;95364.28;;;4.97;50.63
8059;BME280;75058;42.668;23.396;2024-03-22T05:07:33;95364.03;;;4.19;53.15
8059;BME280;75058;42.668;23.396;2024-03-22T05:10:01;95370.63;;;4.07;53.42
8059;BME280;75058;42.668;23.396;2024-03-22T05:12:27;95369.81;;;3.92;54.17
8059;BME280;75058;42.668;23.396;2024-03-22T05:14:55;95336.53;;;4.04;53.85
8059;BME280;75058;42.668;23.396;2024-03-22T05:17:21;95360.38;;;4.87;53.07
8059;BME280;75058;42.668;23.396;2024-03-22T05:19:49;95370.38;;;5.04;51.52
8059;BME280;75058;42.668;23.396;2024-03-22T05:22:15;95369.13;;;5.57;50.28
8059;BME280;75058;42.668;23.396;2024-03-22T05:24:43;95365.59;;;5.43;49.60
8059;BME280;75058;42.668;23.396;2024-03-22T05:27:09;95367.56;;;5.41;49.18
8059;BME280;75058;42.668;23.396;2024-03-22T05:29:36;95363.53;;;5.54;50.07
8059;BME280;75058;42.668;23.396;2024-03-22T05:32:02;95375.38;;;6.05;49.91
8059;BME280;75058;42.668;23.396;2024-03-22T05:34:30;95370.69;;;5.94;49.17
8059;BME280;75058;42.668;23.396;2024-03-22T05:37:01;95373.28;;;5.94;47.76
8059;BME280;75058;42.668;23.396;2024-03-22T05:39:28;95364.28;;;5.90;47.70
8059;BME280;75058;42.668;23.396;2024-03-22T05:41:54;95378.16;;;6.03;49.36
8059;BME280;75058;42.668;23.396;2024-03-22T05:44:21;95359.59;;;6.34;47.40
8059;BME280;75058;42.668;23.396;2024-03-22T05:46:47;95379.13;;;6.58;46.54
8059;BME280;75058;42.668;23.396;2024-03-22T05:49:15;95384.50;;;6.50;46.95
8059;BME280;75058;42.668;23.396;2024-03-22T05:51:41;95389.53;;;6.58;46.39
8059;BME280;75058;42.668;23.396;2024-03-22T05:54:09;95385.13;;;6.24;47.80
8059;BME280;75058;42.668;23.396;2024-03-22T05:56:35;95395.50;;;6.52;47.10
8059;BME280;75058;42.668;23.396;2024-03-22T05:59:02;95391.38;;;6.64;47.03
8059;BME280;75058;42.668;23.396;2024-03-22T06:01:29;95395.28;;;5.98;47.71
8059;BME280;75058;42.668;23.396;2024-03-22T06:03:56;95388.03;;;5.72;48.90
8059;BME280;75058;42.668;23.396;2024-03-22T06:06:22;95378.91;;;6.25;48.05
8059;BME280;75058;42.668;23.396;2024-03-22T06:08:51;95394.50;;;6.87;47.19
8059;BME280;75058;42.668;23.396;2024-03-22T06:11:21;95398.75;;;7.42;45.92
8059;BME280;75058;42.668;23.396;2024-03-22T06:13:48;95392.09;;;7.33;45.56
8059;BME280;75058;42.668;23.396;2024-03-22T06:16:14;95394.03;;;7.18;45.61
8059;BME280;75058;42.668;23.396;2024-03-22T06:18:41;95398.13;;;7.40;46.06
8059;BME280;75058;42.668;23.396;2024-03-22T06:21:07;95385.69;;;7.29;46.46
8059;BME280;75058;42.668;23.396;2024-03-22T06:23:35;95391.03;;;6.39;48.24
8059;BME280;75058;42.668;23.396;2024-03-22T06:26:01;95390.59;;;6.70;48.82
8059;BME280;75058;42.668;23.396;2024-03-22T06:28:29;95388.22;;;7.16;47.42
8059;BME280;75058;42.668;23.396;2024-03-22T06:30:55;95392.47;;;7.30;46.90
8059;BME280;75058;42.668;23.396;2024-03-22T06:33:22;95380.72;;;6.93;47.57
8059;BME280;75058;42.668;23.396;2024-03-22T06:35:48;95389.94;;;6.95;47.96
8059;BME280;75058;42.668;23.396;2024-03-22T06:38:15;95394.78;;;7.05;47.66
8059;BME280;75058;42.668;23.396;2024-03-22T06:40:41;95376.44;;;7.20;47.25
8059;BME280;75058;42.668;23.396;2024-03-22T06:43:08;95389.06;;;7.23;48.44
8059;BME280;75058;42.668;23.396;2024-03-22T06:45:36;95398.59;;;6.68;49.06
8059;BME280;75058;42.668;23.396;2024-03-22T06:48:03;95402.47;;;7.20;47.42
8059;BME280;75058;42.668;23.396;2024-03-22T06:50:29;95403.09;;;6.87;47.43
8059;BME280;75058;42.668;23.396;2024-03-22T06:52:56;95407.31;;;6.88;47.43
8059;BME280;75058;42.668;23.396;2024-03-22T06:55:22;95411.75;;;7.42;47.09
8059;BME280;75058;42.668;23.396;2024-03-22T06:57:50;95415.50;;;8.00;44.88
8059;BME280;75058;42.668;23.396;2024-03-22T07:00:17;95369.97;;;7.03;46.93
8059;BME280;75058;42.668;23.396;2024-03-22T07:02:45;95416.69;;;7.24;46.96
8059;BME280;75058;42.668;23.396;2024-03-22T07:05:11;95413.13;;;7.31;46.14
8059;BME280;75058;42.668;23.396;2024-03-22T07:07:38;95417.69;;;7.29;46.16
8059;BME280;75058;42.668;23.396;2024-03-22T07:10:05;95382.13;;;7.49;46.73
8059;BME280;75058;42.668;23.396;2024-03-22T07:12:32;95414.69;;;8.06;45.87
8059;BME280;75058;42.668;23.396;2024-03-22T07:14:59;95399.38;;;7.50;46.19
8059;BME280;75058;42.668;23.396;2024-03-22T07:17:27;95416.13;;;8.28;44.95
8059;BME280;75058;42.668;23.396;2024-03-22T07:19:57;95424.31;;;8.18;43.84
8059;BME280;75058;42.668;23.396;2024-03-22T07:22:24;95411.88;;;8.73;43.87
8059;BME280;75058;42.668;23.396;2024-03-22T07:24:50;95419.31;;;8.69;42.97
8059;BME280;75058;42.668;23.396;2024-03-22T07:27:17;95397.66;;;8.16;43.12
8059;BME280;75058;42.668;23.396;2024-03-22T07:29:44;95269.97;;;7.38;42.96
8059;BME280;75058;42.668;23.396;2024-03-22T07:32:11;95342.50;;;8.52;41.27
8059;BME280;75058;42.668;23.396;2024-03-22T07:34:37;95418.34;;;8.64;42.21
8059;BME280;75058;42.668;23.396;2024-03-22T07:37:05;95412.69;;;8.80;42.03
8059;BME280;75058;42.668;23.396;2024-03-22T07:39:31;95405.75;;;9.18;41.69
8059;BME280;75058;42.668;23.396;2024-03-22T07:41:58;95409.97;;;9.94;39.92
8059;BME280;75058;42.668;23.396;2024-03-22T07:44:24;95415.97;;;9.70;40.87
8059;BME280;75058;42.668;23.396;2024-03-22T07:46:54;95421.00;;;9.21;41.47
8059;BME280;75058;42.668;23.396;2024-03-22T07:49:20;95414.00;;;9.59;41.53
8059;BME280;75058;42.668;23.396;2024-03-22T07:51:47;95416.00;;;10.33;40.16
8059;BME280;75058;42.668;23.396;2024-03-22T07:54:15;95410.72;;;9.26;41.51
8059;BME280;75058;42.668;23.396;2024-03-22T07:56:42;95407.75;;;9.60;41.24
8059;BME280;75058;42.668;23.396;2024-03-22T07:59:08;95411.63;;;9.89;40.78
8059;BME280;75058;42.668;23.396;2024-03-22T08:01:35;95405.78;;;9.93;40.28
8059;BME280;75058;42.668;23.396;2024-03-22T08:04:01;95412.81;;;9.55;40.64
8059;BME280;75058;42.668;23.396;2024-03-22T08:06:28;95414.25;;;9.51;40.68
8059;BME280;75058;42.668;23.396;2024-03-22T08:08:54;95416.50;;;9.85;40.42
8059;BME280;75058;42.668;23.396;2024-03-22T08:11:26;95408.97;;;9.95;39.77
8059;BME280;75058;42.668;23.396;2024-03-22T08:13:52;95408.69;;;9.34;40.71
8059;BME280;75058;42.668;23.396;2024-03-22T08:16:27;95409.94;;;9.70;40.72
8059;BME280;75058;42.668;23.396;2024-03-22T08:18:53;95401.34;;;9.94;40.06
8059;BME280;75058;42.668;23.396;2024-03-22T08:21:20;95396.44;;;10.04;40.24
8059;BME280;75058;42.668;23.396;2024-03-22T08:23:46;95402.34;;;9.93;40.28
8059;BME280;75058;42.668;23.396;2024-03-22T08:26:13;95402.31;;;9.99;39.89
8059;BME280;75058;42.668;23.396;2024-03-22T08:28:41;95390.56;;;10.40;39.54
8059;BME280;75058;42.668;23.396;2024-03-22T08:31:08;95396.91;;;10.50;39.64
8059;BME280;75058;42.668;23.396;2024-03-22T08:33:34;95391.19;;;11.03;38.31
8059;BME280;75058;42.668;23.396;2024-03-22T08:36:01;95371.88;;;10.12;39.79
8059;BME280;75058;42.668;23.396;2024-03-22T08:38:27;95394.00;;;10.16;39.44
8059;BME280;75058;42.668;23.396;2024-03-22T08:40:54;95391.75;;;10.44;39.72
8059;BME280;75058;42.668;23.396;2024-03-22T08:43:21;95396.28;;;10.30;39.78
8059;BME280;75058;42.668;23.396;2024-03-22T08:45:52;95383.47;;;10.90;38.46
8059;BME280;75058;42.668;23.396;2024-03-22T08:48:18;95395.75;;;11.43;37.72
8059;BME280;75058;42.668;23.396;2024-03-22T08:50:45;95391.09;;;12.05;37.69
8059;BME280;75058;42.668;23.396;2024-03-22T08:53:11;95393.28;;;11.30;38.16
8059;BME280;75058;42.668;23.396;2024-03-22T08:55:45;95397.22;;;11.21;37.97
8059;BME280;75058;42.668;23.396;2024-03-22T08:58:11;95390.28;;;12.04;37.51
8059;BME280;75058;42.668;23.396;2024-03-22T09:00:38;95398.50;;;11.12;38.35
8059;BME280;75058;42.668;23.396;2024-03-22T09:03:05;95395.75;;;10.46;38.97
8059;BME280;75058;42.668;23.396;2024-03-22T09:05:32;95390.72;;;10.88;37.59
8059;BME280;75058;42.668;23.396;2024-03-22T09:07:59;95394.53;;;11.57;36.53
8059;BME280;75058;42.668;23.396;2024-03-22T09:10:26;95404.31;;;11.14;38.57
8059;BME280;75058;42.668;23.396;2024-03-22T09:12:52;95377.66;;;11.53;37.49
8059;BME280;75058;42.668;23.396;2024-03-22T09:15:19;95394.84;;;11.49;37.58
8059;BME280;75058;42.668;23.396;2024-03-22T09:17:45;95380.19;;;10.94;38.32
8059;BME280;75058;42.668;23.396;2024-03-22T09:20:13;95364.75;;;12.00;36.79
8059;BME280;75058;42.668;23.396;2024-03-22T09:22:39;95381.41;;;11.46;37.45
8059;BME280;75058;42.668;23.396;2024-03-22T09:25:07;95381.56;;;11.33;37.53
8059;BME280;75058;42.668;23.396;2024-03-22T09:27:33;95384.06;;;11.57;36.94
8059;BME280;75058;42.668;23.396;2024-03-22T09:30:02;95376.69;;;11.84;36.45
8059;BME280;75058;42.668;23.396;2024-03-22T09:32:29;95372.75;;;12.05;36.62
8059;BME280;75058;42.668;23.396;2024-03-22T09:34:57;95371.41;;;11.73;36.50
8059;BME280;75058;42.668;23.396;2024-03-22T09:37:24;95381.34;;;11.16;36.99
8059;BME280;75058;42.668;23.396;2024-03-22T09:39:52;95374.72;;;11.80;36.95
8059;BME280;75058;42.668;23.396;2024-03-22T09:42:18;95344.94;;;11.74;37.48
8059;BME280;75058;42.668;23.396;2024-03-22T09:44:47;95366.28;;;12.88;35.70
8059;BME280;75058;42.668;23.396;2024-03-22T09:47:14;95360.81;;;12.20;35.79
8059;BME280;75058;42.668;23.396;2024-03-22T09:49:42;95373.59;;;11.76;36.03
8059;BME280;75058;42.668;23.396;2024-03-22T09:52:12;95367.25;;;11.65;36.35
8059;BME280;75058;42.668;23.396;2024-03-22T09:54:42;95364.09;;;12.16;37.01
8059;BME280;75058;42.668;23.396;2024-03-22T09:57:12;95364.59;;;12.71;34.77
8059;BME280;75058;42.668;23.396;2024-03-22T09:59:41;95349.31;;;12.68;35.34
8059;BME280;75058;42.668;23.396;2024-03-22T10:02:09;95360.91;;;12.14;36.10
8059;BME280;75058;42.668;23.396;2024-03-22T10:04:38;95355.09;;;12.12;35.77
8059;BME280;75058;42.668;23.396;2024-03-22T10:07:04;95341.31;;;11.75;36.01
8059;BME280;75058;42.668;23.396;2024-03-22T10:09:31;95361.44;;;11.93;35.96
8059;BME280;75058;42.668;23.396;2024-03-22T10:12:00;95293.38;;;11.56;36.54
8059;BME280;75058;42.668;23.396;2024-03-22T10:14:26;95310.03;;;12.03;35.39
8059;BME280;75058;42.668;23.396;2024-03-22T10:16:52;95344.97;;;12.27;35.02
8059;BME280;75058;42.668;23.396;2024-03-22T10:19:20;95350.53;;;12.30;35.66
8059;BME280;75058;42.668;23.396;2024-03-22T10:21:47;95338.53;;;12.11;36.67
8059;BME280;75058;42.668;23.396;2024-03-22T10:24:14;95344.63;;;12.70;34.90
8059;BME280;75058;42.668;23.396;2024-03-22T10:26:41;95342.41;;;12.09;34.33
8059;BME280;75058;42.668;23.396;2024-03-22T10:29:11;95332.50;;;12.34;34.48
8059;BME280;75058;42.668;23.396;2024-03-22T10:31:38;95337.09;;;12.27;35.31
8059;BME280;75058;42.668;23.396;2024-03-22T10:34:06;95333.53;;;12.45;34.65
8059;BME280;75058;42.668;23.396;2024-03-22T10:36:34;95325.97;;;11.90;35.30
8059;BME280;75058;42.668;23.396;2024-03-22T10:39:01;95327.63;;;12.37;34.96
8059;BME280;75058;42.668;23.396;2024-03-22T10:41:29;95328.75;;;12.18;34.52
8059;BME280;75058;42.668;23.396;2024-03-22T10:43:57;95322.72;;;12.29;35.06
8059;BME280;75058;42.668;23.396;2024-03-22T10:46:29;95298.88;;;12.31;33.87
8059;BME280;75058;42.668;23.396;2024-03-22T10:48:57;95321.78;;;12.01;35.04
8059;BME280;75058;42.668;23.396;2024-03-22T10:51:23;95313.34;;;12.22;35.71
8059;BME280;75058;42.668;23.396;2024-03-22T10:53:52;95311.03;;;12.02;34.75
8059;BME280;75058;42.668;23.396;2024-03-22T10:56:21;95309.53;;;11.83;35.60
8059;BME280;75058;42.668;23.396;2024-03-22T10:58:48;95305.81;;;12.02;35.82
8059;BME280;75058;42.668;23.396;2024-03-22T11:01:22;95302.06;;;12.68;33.59
8059;BME280;75058;42.668;23.396;2024-03-22T11:03:50;95300.59;;;12.14;34.50
8059;BME280;75058;42.668;23.396;2024-03-22T11:06:20;95286.19;;;12.51;33.93
8059;BME280;75058;42.668;23.396;2024-03-22T11:08:49;95298.59;;;12.90;34.38
8059;BME280;75058;42.668;23.396;2024-03-22T11:11:17;95288.69;;;13.77;32.88
8059;BME280;75058;42.668;23.396;2024-03-22T11:13:47;95278.13;;;12.92;33.64
8059;BME280;75058;42.668;23.396;2024-03-22T11:16:14;95282.13;;;13.35;33.92
8059;BME280;75058;42.668;23.396;2024-03-22T11:18:41;95274.22;;;12.55;34.93
8059;BME280;75058;42.668;23.396;2024-03-22T11:21:08;95279.25;;;12.57;35.18
8059;BME280;75058;42.668;23.396;2024-03-22T11:23:36;95288.72;;;12.34;35.12
8059;BME280;75058;42.668;23.396;2024-03-22T11:26:02;95261.34;;;12.19;34.07
8059;BME280;75058;42.668;23.396;2024-03-22T11:28:30;95281.78;;;12.40;33.76
8059;BME280;75058;42.668;23.396;2024-03-22T11:30:56;95275.81;;;12.56;33.93
8059;BME280;75058;42.668;23.396;2024-03-22T11:33:23;95264.63;;;13.00;33.30
8059;BME280;75058;42.668;23.396;2024-03-22T11:35:48;95268.69;;;13.20;33.29
8059;BME280;75058;42.668;23.396;2024-03-22T11:38:17;95267.47;;;13.67;32.64
8059;BME280;75058;42.668;23.396;2024-03-22T11:40:44;95255.94;;;13.40;32.93
8059;BME280;75058;42.668;23.396;2024-03-22T11:43:11;95256.88;;;14.12;32.27
8059;BME280;75058;42.668;23.396;2024-03-22T11:45:39;95256.31;;;14.26;31.59
8059;BME280;75058;42.668;23.396;2024-03-22T11:48:07;95248.44;;;14.64;31.06
8059;BME280;75058;42.668;23.396;2024-03-22T11:50:33;95258.59;;;13.73;32.38
8059;BME280;75058;42.668;23.396;2024-03-22T11:53:00;95239.72;;;14.26;31.80
8059;BME280;75058;42.668;23.396;2024-03-22T11:55:28;95239.97;;;13.91;32.29
8059;BME280;75058;42.668;23.396;2024-03-22T11:57:57;95240.38;;;14.71;30.94
8059;BME280;75058;42.668;23.396;2024-03-22T12:00:24;95236.06;;;14.43;31.44
8059;BME280;75058;42.668;23.396;2024-03-22T12:02:52;95242.59;;;14.41;31.36
8059;BME280;75058;42.668;23.396;2024-03-22T12:05:20;95202.06;;;14.42;31.34
8059;BME280;75058;42.668;23.396;2024-03-22T12:07:47;95193.03;;;14.00;31.37
8059;BME280;75058;42.668;23.396;2024-03-22T12:10:14;95225.22;;;13.90;32.08
8059;BME280;75058;42.668;23.396;2024-03-22T12:12:41;95213.03;;;13.34;32.73
8059;BME280;75058;42.668;23.396;2024-03-22T12:15:10;95230.31;;;12.79;32.97
8059;BME280;75058;42.668;23.396;2024-03-22T12:17:37;95196.38;;;12.49;33.83
8059;BME280;75058;42.668;23.396;2024-03-22T12:20:08;95205.91;;;13.35;32.32
8059;BME280;75058;42.668;23.396;2024-03-22T12:22:34;95177.78;;;14.02;31.45
8059;BME280;75058;42.668;23.396;2024-03-22T12:25:01;95221.59;;;14.89;30.72
8059;BME280;75058;42.668;23.396;2024-03-22T12:27:27;95198.47;;;15.18;30.13
8059;BME280;75058;42.668;23.396;2024-03-22T12:29:56;95216.22;;;15.01;30.40
8059;BME280;75058;42.668;23.396;2024-03-22T12:32:22;95194.75;;;15.14;29.48
8059;BME280;75058;42.668;23.396;2024-03-22T12:34:48;95204.03;;;15.43;29.71
8059;BME280;75058;42.668;23.396;2024-03-22T12:37:14;95206.91;;;14.72;31.15
8059;BME280;75058;42.668;23.396;2024-03-22T12:39:41;95192.56;;;13.36;32.71
8059;BME280;75058;42.668;23.396;2024-03-22T12:42:07;95197.97;;;13.96;32.03
8059;BME280;75058;42.668;23.396;2024-03-22T12:44:34;95186.41;;;13.47;32.63
8059;BME280;75058;42.668;23.396;2024-03-22T12:47:02;95190.75;;;13.53;32.79
8059;BME280;75058;42.668;23.396;2024-03-22T12:49:29;95193.81;;;13.34;32.16
8059;BME280;75058;42.668;23.396;2024-03-22T12:51:55;95199.78;;;13.01;33.14
8059;BME280;75058;42.668;23.396;2024-03-22T12:54:23;95200.66;;;12.78;32.66
8059;BME280;75058;42.668;23.396;2024-03-22T12:56:49;95198.47;;;12.87;32.64
8059;BME280;75058;42.668;23.396;2024-03-22T12:59:16;95192.84;;;12.95;32.99
8059;BME280;75058;42.668;23.396;2024-03-22T13:01:42;95193.72;;;12.72;32.82
8059;BME280;75058;42.668;23.396;2024-03-22T13:04:11;95195.69;;;12.54;32.53
8059;BME280;75058;42.668;23.396;2024-03-22T13:06:37;95184.44;;;13.71;31.26
8059;BME280;75058;42.668;23.396;2024-03-22T13:09:04;95183.81;;;13.64;32.21
8059;BME280;75058;42.668;23.396;2024-03-22T13:11:30;95178.22;;;13.60;31.78